sensor_id;sensor_type;location;lat;lon;timestamp;P1;durP1;ratioP1;P2;durP2;ratioP2
21507;SDS011;10915;54.352;9.074;2023-04-15T00:02:14;16.87;;;11.07;;
21507;SDS011;10915;54.352;9.074;2023-04-15T00:04:46;14.70;;;12.50;;
21507;SDS011;10915;54.352;9.074;2023-04-15T00:07:12;14.80;;;11.90;;
21507;SDS011;10915;54.352;9.074;2023-04-15T00:09:40;15.73;;;11.53;;
21507;SDS011;10915;54.352;9.074;2023-04-15T00:12:06;15.80;;;12.00;;
21507;SDS011;10915;54.352;9.074;2023-04-15T00:14:33;15.07;;;12.70;;
21507;SDS011;10915;54.352;9.074;2023-04-15T00:17:00;15.90;;;12.70;;
21507;SDS011;10915;54.352;9.074;2023-04-15T00:19:25;16.17;;;13.13;;
21507;SDS011;10915;54.352;9.074;2023-04-15T00:21:51;16.50;;;13.17;;
21507;SDS011;10915;54.352;9.074;2023-04-15T00:24:16;16.57;;;13.23;;
21507;SDS011;10915;54.352;9.074;2023-04-15T00:26:42;15.43;;;13.70;;
21507;SDS011;10915;54.352;9.074;2023-04-15T00:29:08;15.27;;;13.23;;
21507;SDS011;10915;54.352;9.074;2023-04-15T00:31:34;17.37;;;14.47;;
21507;SDS011;10915;54.352;9.074;2023-04-15T00:33:59;17.23;;;14.03;;
21507;SDS011;10915;54.352;9.074;2023-04-15T00:36:26;16.70;;;14.17;;
21507;SDS011;10915;54.352;9.074;2023-04-15T00:38:52;17.13;;;13.97;;
21507;SDS011;10915;54.352;9.074;2023-04-15T00:41:17;15.67;;;13.50;;
21507;SDS011;10915;54.352;9.074;2023-04-15T00:43:43;17.17;;;14.43;;
21507;SDS011;10915;54.352;9.074;2023-04-15T00:46:09;18.83;;;14.00;;
21507;SDS011;10915;54.352;9.074;2023-04-15T00:48:37;18.17;;;13.93;;
21507;SDS011;10915;54.352;9.074;2023-04-15T00:51:03;19.87;;;14.90;;
21507;SDS011;10915;54.352;9.074;2023-04-15T00:53:41;17.80;;;14.27;;
21507;SDS011;10915;54.352;9.074;2023-04-15T00:56:07;18.40;;;14.93;;
21507;SDS011;10915;54.352;9.074;2023-04-15T00:58:33;19.77;;;15.53;;
21507;SDS011;10915;54.352;9.074;2023-04-15T01:00:59;21.43;;;16.73;;
21507;SDS011;10915;54.352;9.074;2023-04-15T01:03:25;22.10;;;16.90;;
21507;SDS011;10915;54.352;9.074;2023-04-15T01:05:50;20.13;;;17.10;;
21507;SDS011;10915;54.352;9.074;2023-04-15T01:08:22;22.87;;;17.83;;
21507;SDS011;10915;54.352;9.074;2023-04-15T01:10:58;24.87;;;18.53;;
21507;SDS011;10915;54.352;9.074;2023-04-15T01:13:27;23.77;;;19.27;;
21507;SDS011;10915;54.352;9.074;2023-04-15T01:15:55;24.93;;;20.27;;
21507;SDS011;10915;54.352;9.074;2023-04-15T01:18:21;27.57;;;21.63;;
21507;SDS011;10915;54.352;9.074;2023-04-15T01:20:48;31.53;;;23.07;;
21507;SDS011;10915;54.352;9.074;2023-04-15T01:23:14;25.93;;;21.80;;
21507;SDS011;10915;54.352;9.074;2023-04-15T01:25:41;27.87;;;22.23;;
21507;SDS011;10915;54.352;9.074;2023-04-15T01:28:08;28.47;;;23.03;;
21507;SDS011;10915;54.352;9.074;2023-04-15T01:30:34;29.57;;;22.63;;
21507;SDS011;10915;54.352;9.074;2023-04-15T01:33:00;29.57;;;23.30;;
21507;SDS011;10915;54.352;9.074;2023-04-15T01:35:26;28.73;;;21.97;;
21507;SDS011;10915;54.352;9.074;2023-04-15T01:37:52;27.10;;;21.97;;
21507;SDS011;10915;54.352;9.074;2023-04-15T01:40:18;31.90;;;23.37;;
21507;SDS011;10915;54.352;9.074;2023-04-15T01:42:44;28.10;;;22.23;;
21507;SDS011;10915;54.352;9.074;2023-04-15T01:45:10;26.37;;;21.33;;
21507;SDS011;10915;54.352;9.074;2023-04-15T01:47:37;34.47;;;23.83;;
21507;SDS011;10915;54.352;9.074;2023-04-15T01:50:03;26.80;;;21.57;;
21507;SDS011;10915;54.352;9.074;2023-04-15T01:52:29;31.63;;;23.53;;
21507;SDS011;10915;54.352;9.074;2023-04-15T01:54:56;29.27;;;22.07;;
21507;SDS011;10915;54.352;9.074;2023-04-15T01:57:21;32.27;;;22.90;;
21507;SDS011;10915;54.352;9.074;2023-04-15T01:59:47;28.33;;;22.97;;
21507;SDS011;10915;54.352;9.074;2023-04-15T02:02:12;31.77;;;24.57;;
21507;SDS011;10915;54.352;9.074;2023-04-15T02:04:39;31.00;;;24.20;;
21507;SDS011;10915;54.352;9.074;2023-04-15T02:07:04;34.30;;;24.53;;
21507;SDS011;10915;54.352;9.074;2023-04-15T02:09:31;31.70;;;23.20;;
21507;SDS011;10915;54.352;9.074;2023-04-15T02:11:56;33.53;;;24.40;;
21507;SDS011;10915;54.352;9.074;2023-04-15T02:14:22;30.13;;;23.50;;
21507;SDS011;10915;54.352;9.074;2023-04-15T02:16:47;32.33;;;22.30;;
21507;SDS011;10915;54.352;9.074;2023-04-15T02:19:13;30.13;;;21.87;;
21507;SDS011;10915;54.352;9.074;2023-04-15T02:21:39;30.63;;;22.40;;
21507;SDS011;10915;54.352;9.074;2023-04-15T02:24:05;30.00;;;22.80;;
21507;SDS011;10915;54.352;9.074;2023-04-15T02:26:33;30.33;;;22.70;;
21507;SDS011;10915;54.352;9.074;2023-04-15T02:28:59;26.17;;;20.17;;
21507;SDS011;10915;54.352;9.074;2023-04-15T02:31:25;27.20;;;20.67;;
21507;SDS011;10915;54.352;9.074;2023-04-15T02:33:51;26.83;;;19.97;;
21507;SDS011;10915;54.352;9.074;2023-04-15T02:36:17;27.37;;;20.23;;
21507;SDS011;10915;54.352;9.074;2023-04-15T02:38:42;25.87;;;19.60;;
21507;SDS011;10915;54.352;9.074;2023-04-15T02:41:08;25.23;;;20.03;;
21507;SDS011;10915;54.352;9.074;2023-04-15T02:43:34;23.33;;;19.13;;
21507;SDS011;10915;54.352;9.074;2023-04-15T02:46:00;25.23;;;18.23;;
21507;SDS011;10915;54.352;9.074;2023-04-15T02:48:26;28.70;;;18.93;;
21507;SDS011;10915;54.352;9.074;2023-04-15T02:50:51;24.67;;;18.87;;
21507;SDS011;10915;54.352;9.074;2023-04-15T02:53:17;23.87;;;18.90;;
21507;SDS011;10915;54.352;9.074;2023-04-15T02:55:43;24.10;;;18.50;;
21507;SDS011;10915;54.352;9.074;2023-04-15T02:58:10;27.30;;;18.90;;
21507;SDS011;10915;54.352;9.074;2023-04-15T03:00:35;23.73;;;17.93;;
21507;SDS011;10915;54.352;9.074;2023-04-15T03:03:02;26.03;;;18.70;;
21507;SDS011;10915;54.352;9.074;2023-04-15T03:05:29;23.77;;;18.30;;
21507;SDS011;10915;54.352;9.074;2023-04-15T03:07:54;25.00;;;19.00;;
21507;SDS011;10915;54.352;9.074;2023-04-15T03:10:20;26.17;;;18.47;;
21507;SDS011;10915;54.352;9.074;2023-04-15T03:12:46;24.30;;;18.13;;
21507;SDS011;10915;54.352;9.074;2023-04-15T03:15:12;25.83;;;17.77;;
21507;SDS011;10915;54.352;9.074;2023-04-15T03:17:38;22.37;;;17.13;;
21507;SDS011;10915;54.352;9.074;2023-04-15T03:20:04;26.27;;;19.30;;
21507;SDS011;10915;54.352;9.074;2023-04-15T03:22:30;24.97;;;19.03;;
21507;SDS011;10915;54.352;9.074;2023-04-15T03:24:57;25.90;;;18.60;;
21507;SDS011;10915;54.352;9.074;2023-04-15T03:27:23;27.17;;;19.47;;
21507;SDS011;10915;54.352;9.074;2023-04-15T03:29:49;29.50;;;19.70;;
21507;SDS011;10915;54.352;9.074;2023-04-15T03:32:15;28.73;;;19.30;;
21507;SDS011;10915;54.352;9.074;2023-04-15T03:34:41;26.93;;;19.17;;
21507;SDS011;10915;54.352;9.074;2023-04-15T03:37:07;29.10;;;20.10;;
21507;SDS011;10915;54.352;9.074;2023-04-15T03:39:33;26.07;;;20.47;;
21507;SDS011;10915;54.352;9.074;2023-04-15T03:41:58;28.37;;;20.57;;
21507;SDS011;10915;54.352;9.074;2023-04-15T03:44:25;27.20;;;20.67;;
21507;SDS011;10915;54.352;9.074;2023-04-15T03:46:51;28.87;;;21.50;;
21507;SDS011;10915;54.352;9.074;2023-04-15T03:49:17;29.27;;;21.27;;
21507;SDS011;10915;54.352;9.074;2023-04-15T03:51:43;29.67;;;22.63;;
21507;SDS011;10915;54.352;9.074;2023-04-15T03:54:09;28.23;;;21.63;;
21507;SDS011;10915;54.352;9.074;2023-04-15T03:56:35;30.57;;;22.40;;
21507;SDS011;10915;54.352;9.074;2023-04-15T03:59:01;29.77;;;22.40;;
21507;SDS011;10915;54.352;9.074;2023-04-15T04:01:26;29.53;;;22.33;;
21507;SDS011;10915;54.352;9.074;2023-04-15T04:03:52;28.90;;;21.73;;
21507;SDS011;10915;54.352;9.074;2023-04-15T04:06:18;30.10;;;23.07;;
21507;SDS011;10915;54.352;9.074;2023-04-15T04:08:43;27.37;;;22.03;;
21507;SDS011;10915;54.352;9.074;2023-04-15T04:11:09;30.23;;;22.97;;
21507;SDS011;10915;54.352;9.074;2023-04-15T04:13:35;26.57;;;22.40;;
21507;SDS011;10915;54.352;9.074;2023-04-15T04:16:00;29.80;;;21.67;;
21507;SDS011;10915;54.352;9.074;2023-04-15T04:18:28;29.40;;;23.20;;
21507;SDS011;10915;54.352;9.074;2023-04-15T04:20:53;27.17;;;21.57;;
21507;SDS011;10915;54.352;9.074;2023-04-15T04:23:19;28.43;;;22.10;;
21507;SDS011;10915;54.352;9.074;2023-04-15T04:25:45;29.27;;;22.60;;
21507;SDS011;10915;54.352;9.074;2023-04-15T04:28:10;30.30;;;22.83;;
21507;SDS011;10915;54.352;9.074;2023-04-15T04:30:36;28.97;;;21.47;;
21507;SDS011;10915;54.352;9.074;2023-04-15T04:33:02;28.40;;;21.87;;
21507;SDS011;10915;54.352;9.074;2023-04-15T04:35:27;26.80;;;21.73;;
21507;SDS011;10915;54.352;9.074;2023-04-15T04:37:53;30.67;;;22.60;;
21507;SDS011;10915;54.352;9.074;2023-04-15T04:40:18;31.33;;;22.33;;
21507;SDS011;10915;54.352;9.074;2023-04-15T04:42:44;28.57;;;21.77;;
21507;SDS011;10915;54.352;9.074;2023-04-15T04:45:11;27.87;;;21.07;;
21507;SDS011;10915;54.352;9.074;2023-04-15T04:47:36;26.93;;;20.63;;
21507;SDS011;10915;54.352;9.074;2023-04-15T04:50:02;24.40;;;20.00;;
21507;SDS011;10915;54.352;9.074;2023-04-15T04:52:27;24.33;;;19.13;;
21507;SDS011;10915;54.352;9.074;2023-04-15T04:54:53;25.10;;;19.20;;
21507;SDS011;10915;54.352;9.074;2023-04-15T04:57:18;26.00;;;19.60;;
21507;SDS011;10915;54.352;9.074;2023-04-15T04:59:44;23.60;;;18.40;;
21507;SDS011;10915;54.352;9.074;2023-04-15T05:02:10;25.87;;;18.53;;
21507;SDS011;10915;54.352;9.074;2023-04-15T05:04:36;21.43;;;17.27;;
21507;SDS011;10915;54.352;9.074;2023-04-15T05:07:01;21.90;;;16.97;;
21507;SDS011;10915;54.352;9.074;2023-04-15T05:09:27;23.93;;;17.40;;
21507;SDS011;10915;54.352;9.074;2023-04-15T05:11:54;23.13;;;18.37;;
21507;SDS011;10915;54.352;9.074;2023-04-15T05:14:21;23.63;;;16.83;;
21507;SDS011;10915;54.352;9.074;2023-04-15T05:16:46;21.83;;;17.13;;
21507;SDS011;10915;54.352;9.074;2023-04-15T05:19:12;21.47;;;16.53;;
21507;SDS011;10915;54.352;9.074;2023-04-15T05:21:38;20.73;;;16.90;;
21507;SDS011;10915;54.352;9.074;2023-04-15T05:24:03;20.47;;;15.47;;
21507;SDS011;10915;54.352;9.074;2023-04-15T05:26:29;21.63;;;17.00;;
21507;SDS011;10915;54.352;9.074;2023-04-15T05:28:55;20.03;;;15.63;;
21507;SDS011;10915;54.352;9.074;2023-04-15T05:31:21;21.93;;;16.40;;
21507;SDS011;10915;54.352;9.074;2023-04-15T05:33:47;20.07;;;15.07;;
21507;SDS011;10915;54.352;9.074;2023-04-15T05:36:12;19.13;;;15.60;;
21507;SDS011;10915;54.352;9.074;2023-04-15T05:38:38;18.87;;;14.50;;
21507;SDS011;10915;54.352;9.074;2023-04-15T05:41:03;18.50;;;14.33;;
21507;SDS011;10915;54.352;9.074;2023-04-15T05:43:29;19.43;;;14.23;;
21507;SDS011;10915;54.352;9.074;2023-04-15T05:45:55;20.57;;;14.90;;
21507;SDS011;10915;54.352;9.074;2023-04-15T05:48:21;17.17;;;13.90;;
21507;SDS011;10915;54.352;9.074;2023-04-15T05:50:47;17.60;;;13.90;;
21507;SDS011;10915;54.352;9.074;2023-04-15T05:53:13;17.37;;;14.30;;
21507;SDS011;10915;54.352;9.074;2023-04-15T05:55:39;18.90;;;14.40;;
21507;SDS011;10915;54.352;9.074;2023-04-15T05:58:05;20.63;;;15.47;;
21507;SDS011;10915;54.352;9.074;2023-04-15T06:00:30;20.00;;;15.17;;
21507;SDS011;10915;54.352;9.074;2023-04-15T06:02:56;18.90;;;14.40;;
21507;SDS011;10915;54.352;9.074;2023-04-15T06:05:22;18.90;;;14.03;;
21507;SDS011;10915;54.352;9.074;2023-04-15T06:07:48;18.33;;;14.23;;
21507;SDS011;10915;54.352;9.074;2023-04-15T06:10:15;16.20;;;13.60;;
21507;SDS011;10915;54.352;9.074;2023-04-15T06:12:40;16.93;;;13.50;;
21507;SDS011;10915;54.352;9.074;2023-04-15T06:15:06;16.83;;;12.30;;
21507;SDS011;10915;54.352;9.074;2023-04-15T06:17:34;16.40;;;12.00;;
21507;SDS011;10915;54.352;9.074;2023-04-15T06:20:00;14.97;;;11.90;;
21507;SDS011;10915;54.352;9.074;2023-04-15T06:22:26;14.67;;;11.30;;
21507;SDS011;10915;54.352;9.074;2023-04-15T06:24:52;15.50;;;11.87;;
21507;SDS011;10915;54.352;9.074;2023-04-15T06:27:18;14.40;;;11.47;;
21507;SDS011;10915;54.352;9.074;2023-04-15T06:29:44;14.47;;;11.60;;
21507;SDS011;10915;54.352;9.074;2023-04-15T06:32:10;16.77;;;12.30;;
21507;SDS011;10915;54.352;9.074;2023-04-15T06:34:36;14.53;;;11.53;;
21507;SDS011;10915;54.352;9.074;2023-04-15T06:37:01;14.63;;;11.77;;
21507;SDS011;10915;54.352;9.074;2023-04-15T06:39:27;16.47;;;12.53;;
21507;SDS011;10915;54.352;9.074;2023-04-15T06:41:53;15.37;;;11.57;;
21507;SDS011;10915;54.352;9.074;2023-04-15T06:44:18;13.17;;;10.83;;
21507;SDS011;10915;54.352;9.074;2023-04-15T06:46:44;14.50;;;11.40;;
21507;SDS011;10915;54.352;9.074;2023-04-15T06:49:10;15.83;;;11.80;;
21507;SDS011;10915;54.352;9.074;2023-04-15T06:51:36;15.63;;;11.33;;
21507;SDS011;10915;54.352;9.074;2023-04-15T06:54:02;15.20;;;11.63;;
21507;SDS011;10915;54.352;9.074;2023-04-15T06:56:30;17.63;;;11.47;;
21507;SDS011;10915;54.352;9.074;2023-04-15T06:58:56;15.33;;;11.73;;
21507;SDS011;10915;54.352;9.074;2023-04-15T07:01:22;15.17;;;11.40;;
21507;SDS011;10915;54.352;9.074;2023-04-15T07:03:47;15.70;;;11.37;;
21507;SDS011;10915;54.352;9.074;2023-04-15T07:06:13;14.73;;;11.37;;
21507;SDS011;10915;54.352;9.074;2023-04-15T07:08:39;13.97;;;11.97;;
21507;SDS011;10915;54.352;9.074;2023-04-15T07:11:04;15.87;;;12.33;;
21507;SDS011;10915;54.352;9.074;2023-04-15T07:13:30;14.90;;;12.13;;
21507;SDS011;10915;54.352;9.074;2023-04-15T07:15:57;14.97;;;12.00;;
21507;SDS011;10915;54.352;9.074;2023-04-15T07:18:22;15.40;;;12.50;;
21507;SDS011;10915;54.352;9.074;2023-04-15T07:20:48;16.00;;;12.83;;
21507;SDS011;10915;54.352;9.074;2023-04-15T07:23:14;17.83;;;13.23;;
21507;SDS011;10915;54.352;9.074;2023-04-15T07:25:40;17.43;;;13.20;;
21507;SDS011;10915;54.352;9.074;2023-04-15T07:28:05;17.17;;;12.63;;
21507;SDS011;10915;54.352;9.074;2023-04-15T07:30:31;16.03;;;12.97;;
21507;SDS011;10915;54.352;9.074;2023-04-15T07:32:57;17.97;;;13.63;;
21507;SDS011;10915;54.352;9.074;2023-04-15T07:35:23;19.57;;;14.13;;
21507;SDS011;10915;54.352;9.074;2023-04-15T07:37:49;19.57;;;14.67;;
21507;SDS011;10915;54.352;9.074;2023-04-15T07:40:16;22.13;;;15.10;;
21507;SDS011;10915;54.352;9.074;2023-04-15T07:42:42;21.43;;;14.53;;
21507;SDS011;10915;54.352;9.074;2023-04-15T07:45:08;20.30;;;15.17;;
21507;SDS011;10915;54.352;9.074;2023-04-15T07:47:34;21.13;;;15.97;;
21507;SDS011;10915;54.352;9.074;2023-04-15T07:50:00;19.97;;;15.57;;
21507;SDS011;10915;54.352;9.074;2023-04-15T07:52:26;22.63;;;16.67;;
21507;SDS011;10915;54.352;9.074;2023-04-15T07:54:52;26.13;;;17.77;;
21507;SDS011;10915;54.352;9.074;2023-04-15T07:57:18;28.23;;;18.57;;
21507;SDS011;10915;54.352;9.074;2023-04-15T07:59:43;23.70;;;16.70;;
21507;SDS011;10915;54.352;9.074;2023-04-15T08:02:09;28.93;;;19.83;;
21507;SDS011;10915;54.352;9.074;2023-04-15T08:04:35;29.23;;;19.40;;
21507;SDS011;10915;54.352;9.074;2023-04-15T08:07:01;33.27;;;21.50;;
21507;SDS011;10915;54.352;9.074;2023-04-15T08:09:28;38.70;;;24.07;;
21507;SDS011;10915;54.352;9.074;2023-04-15T08:11:53;41.40;;;25.90;;
21507;SDS011;10915;54.352;9.074;2023-04-15T08:14:21;49.83;;;29.03;;
21507;SDS011;10915;54.352;9.074;2023-04-15T08:16:46;48.27;;;30.20;;
21507;SDS011;10915;54.352;9.074;2023-04-15T08:19:12;51.10;;;30.40;;
21507;SDS011;10915;54.352;9.074;2023-04-15T08:21:38;56.80;;;35.13;;
21507;SDS011;10915;54.352;9.074;2023-04-15T08:24:05;62.13;;;36.47;;
21507;SDS011;10915;54.352;9.074;2023-04-15T08:26:31;65.10;;;38.67;;
21507;SDS011;10915;54.352;9.074;2023-04-15T08:28:56;74.73;;;41.43;;
21507;SDS011;10915;54.352;9.074;2023-04-15T08:31:25;71.77;;;41.90;;
21507;SDS011;10915;54.352;9.074;2023-04-15T08:33:53;80.87;;;45.73;;
21507;SDS011;10915;54.352;9.074;2023-04-15T08:36:20;93.90;;;50.43;;
21507;SDS011;10915;54.352;9.074;2023-04-15T08:38:46;88.13;;;51.00;;
21507;SDS011;10915;54.352;9.074;2023-04-15T08:41:21;94.27;;;51.63;;
21507;SDS011;10915;54.352;9.074;2023-04-15T08:44:06;110.07;;;55.40;;
21507;SDS011;10915;54.352;9.074;2023-04-15T08:46:32;106.60;;;56.20;;
21507;SDS011;10915;54.352;9.074;2023-04-15T08:48:59;107.90;;;55.30;;
21507;SDS011;10915;54.352;9.074;2023-04-15T08:51:27;109.97;;;58.10;;
21507;SDS011;10915;54.352;9.074;2023-04-15T08:53:53;103.73;;;57.07;;
21507;SDS011;10915;54.352;9.074;2023-04-15T08:56:20;109.90;;;58.30;;
21507;SDS011;10915;54.352;9.074;2023-04-15T08:58:53;106.27;;;58.20;;
21507;SDS011;10915;54.352;9.074;2023-04-15T09:01:19;107.47;;;58.50;;
21507;SDS011;10915;54.352;9.074;2023-04-15T09:03:46;101.43;;;57.77;;
21507;SDS011;10915;54.352;9.074;2023-04-15T09:06:14;111.70;;;59.20;;
21507;SDS011;10915;54.352;9.074;2023-04-15T09:08:41;107.83;;;60.40;;
21507;SDS011;10915;54.352;9.074;2023-04-15T09:11:06;101.07;;;57.27;;
21507;SDS011;10915;54.352;9.074;2023-04-15T09:13:32;108.00;;;60.33;;
21507;SDS011;10915;54.352;9.074;2023-04-15T09:16:00;100.67;;;58.50;;
21507;SDS011;10915;54.352;9.074;2023-04-15T09:18:28;101.13;;;58.93;;
21507;SDS011;10915;54.352;9.074;2023-04-15T09:20:55;96.97;;;58.87;;
21507;SDS011;10915;54.352;9.074;2023-04-15T09:23:29;97.47;;;58.93;;
21507;SDS011;10915;54.352;9.074;2023-04-15T09:25:55;93.80;;;58.90;;
21507;SDS011;10915;54.352;9.074;2023-04-15T09:28:25;97.23;;;56.63;;
21507;SDS011;10915;54.352;9.074;2023-04-15T09:30:51;89.80;;;56.00;;
21507;SDS011;10915;54.352;9.074;2023-04-15T09:33:20;85.50;;;53.87;;
21507;SDS011;10915;54.352;9.074;2023-04-15T09:36:02;85.20;;;55.10;;
21507;SDS011;10915;54.352;9.074;2023-04-15T09:38:29;70.73;;;50.87;;
21507;SDS011;10915;54.352;9.074;2023-04-15T09:40:56;68.17;;;49.27;;
21507;SDS011;10915;54.352;9.074;2023-04-15T09:43:22;65.77;;;47.63;;
21507;SDS011;10915;54.352;9.074;2023-04-15T09:46:02;66.70;;;46.53;;
21507;SDS011;10915;54.352;9.074;2023-04-15T09:48:28;62.87;;;46.13;;
21507;SDS011;10915;54.352;9.074;2023-04-15T09:50:56;59.80;;;43.27;;
21507;SDS011;10915;54.352;9.074;2023-04-15T09:53:23;58.93;;;44.57;;
21507;SDS011;10915;54.352;9.074;2023-04-15T09:55:54;56.13;;;42.43;;
21507;SDS011;10915;54.352;9.074;2023-04-15T09:58:22;58.07;;;43.50;;
21507;SDS011;10915;54.352;9.074;2023-04-15T10:00:48;53.63;;;40.00;;
21507;SDS011;10915;54.352;9.074;2023-04-15T10:03:17;55.20;;;39.53;;
21507;SDS011;10915;54.352;9.074;2023-04-15T10:05:43;55.67;;;39.13;;
21507;SDS011;10915;54.352;9.074;2023-04-15T10:08:11;54.00;;;40.80;;
21507;SDS011;10915;54.352;9.074;2023-04-15T10:10:37;53.00;;;39.93;;
21507;SDS011;10915;54.352;9.074;2023-04-15T10:13:04;51.97;;;38.37;;
21507;SDS011;10915;54.352;9.074;2023-04-15T10:15:31;48.87;;;37.70;;
21507;SDS011;10915;54.352;9.074;2023-04-15T10:17:57;49.33;;;38.60;;
21507;SDS011;10915;54.352;9.074;2023-04-15T10:20:25;48.10;;;38.07;;
21507;SDS011;10915;54.352;9.074;2023-04-15T10:22:51;44.23;;;36.47;;
21507;SDS011;10915;54.352;9.074;2023-04-15T10:25:17;53.57;;;39.37;;
21507;SDS011;10915;54.352;9.074;2023-04-15T10:27:43;50.03;;;38.13;;
21507;SDS011;10915;54.352;9.074;2023-04-15T10:30:10;50.53;;;37.63;;
21507;SDS011;10915;54.352;9.074;2023-04-15T10:32:36;48.40;;;36.60;;
21507;SDS011;10915;54.352;9.074;2023-04-15T10:35:03;43.83;;;36.63;;
21507;SDS011;10915;54.352;9.074;2023-04-15T10:37:34;48.73;;;35.43;;
21507;SDS011;10915;54.352;9.074;2023-04-15T10:40:00;43.00;;;34.50;;
21507;SDS011;10915;54.352;9.074;2023-04-15T10:42:51;43.07;;;33.27;;
21507;SDS011;10915;54.352;9.074;2023-04-15T10:45:18;42.63;;;32.50;;
21507;SDS011;10915;54.352;9.074;2023-04-15T10:47:44;39.20;;;31.80;;
21507;SDS011;10915;54.352;9.074;2023-04-15T10:50:09;40.70;;;30.07;;
21507;SDS011;10915;54.352;9.074;2023-04-15T10:52:36;39.20;;;31.07;;
21507;SDS011;10915;54.352;9.074;2023-04-15T10:55:12;37.17;;;30.97;;
21507;SDS011;10915;54.352;9.074;2023-04-15T10:57:41;35.60;;;29.23;;
21507;SDS011;10915;54.352;9.074;2023-04-15T11:00:09;36.90;;;28.30;;
21507;SDS011;10915;54.352;9.074;2023-04-15T11:02:39;32.37;;;26.63;;
21507;SDS011;10915;54.352;9.074;2023-04-15T11:08:03;31.97;;;27.37;;
21507;SDS011;10915;54.352;9.074;2023-04-15T11:15:33;30.87;;;25.23;;
21507;SDS011;10915;54.352;9.074;2023-04-15T11:18:09;29.47;;;24.13;;
21507;SDS011;10915;54.352;9.074;2023-04-15T11:20:40;30.43;;;24.93;;
21507;SDS011;10915;54.352;9.074;2023-04-15T11:23:09;30.80;;;24.03;;
21507;SDS011;10915;54.352;9.074;2023-04-15T11:25:35;27.03;;;22.70;;
21507;SDS011;10915;54.352;9.074;2023-04-15T11:28:04;32.23;;;24.93;;
21507;SDS011;10915;54.352;9.074;2023-04-15T11:30:30;27.23;;;22.97;;
21507;SDS011;10915;54.352;9.074;2023-04-15T11:32:58;27.13;;;23.10;;
21507;SDS011;10915;54.352;9.074;2023-04-15T11:35:26;27.07;;;22.10;;
21507;SDS011;10915;54.352;9.074;2023-04-15T11:37:52;25.87;;;22.80;;
21507;SDS011;10915;54.352;9.074;2023-04-15T11:40:23;22.73;;;20.17;;
21507;SDS011;10915;54.352;9.074;2023-04-15T11:45:37;26.33;;;21.60;;
21507;SDS011;10915;54.352;9.074;2023-04-15T11:48:33;25.57;;;19.33;;
21507;SDS011;10915;54.352;9.074;2023-04-15T11:51:06;23.67;;;18.50;;
21507;SDS011;10915;54.352;9.074;2023-04-15T11:53:44;19.23;;;17.20;;
21507;SDS011;10915;54.352;9.074;2023-04-15T11:56:19;22.00;;;17.90;;
21507;SDS011;10915;54.352;9.074;2023-04-15T11:58:47;24.23;;;19.20;;
21507;SDS011;10915;54.352;9.074;2023-04-15T12:01:15;21.53;;;17.77;;
21507;SDS011;10915;54.352;9.074;2023-04-15T12:03:42;23.10;;;17.67;;
21507;SDS011;10915;54.352;9.074;2023-04-15T12:14:09;20.50;;;16.40;;
21507;SDS011;10915;54.352;9.074;2023-04-15T12:16:58;19.70;;;16.17;;
21507;SDS011;10915;54.352;9.074;2023-04-15T12:19:30;21.40;;;17.13;;
21507;SDS011;10915;54.352;9.074;2023-04-15T12:22:04;19.03;;;16.90;;
21507;SDS011;10915;54.352;9.074;2023-04-15T12:24:33;21.37;;;16.40;;
21507;SDS011;10915;54.352;9.074;2023-04-15T12:27:06;19.90;;;17.37;;
21507;SDS011;10915;54.352;9.074;2023-04-15T12:29:34;22.47;;;16.87;;
21507;SDS011;10915;54.352;9.074;2023-04-15T12:32:04;22.00;;;16.27;;
21507;SDS011;10915;54.352;9.074;2023-04-15T12:34:32;19.60;;;16.20;;
21507;SDS011;10915;54.352;9.074;2023-04-15T12:37:03;19.23;;;15.10;;
21507;SDS011;10915;54.352;9.074;2023-04-15T12:39:34;17.73;;;15.50;;
21507;SDS011;10915;54.352;9.074;2023-04-15T12:42:02;22.20;;;16.67;;
21507;SDS011;10915;54.352;9.074;2023-04-15T12:44:29;22.47;;;16.17;;
21507;SDS011;10915;54.352;9.074;2023-04-15T12:46:55;22.27;;;16.27;;
21507;SDS011;10915;54.352;9.074;2023-04-15T12:49:21;18.77;;;14.90;;
21507;SDS011;10915;54.352;9.074;2023-04-15T12:51:47;24.27;;;15.80;;
21507;SDS011;10915;54.352;9.074;2023-04-15T12:54:15;22.33;;;16.20;;
21507;SDS011;10915;54.352;9.074;2023-04-15T12:56:41;20.17;;;15.60;;
21507;SDS011;10915;54.352;9.074;2023-04-15T12:59:07;16.67;;;14.10;;
21507;SDS011;10915;54.352;9.074;2023-04-15T13:01:32;19.63;;;14.40;;
21507;SDS011;10915;54.352;9.074;2023-04-15T13:03:58;20.17;;;15.13;;
21507;SDS011;10915;54.352;9.074;2023-04-15T13:06:24;19.43;;;14.20;;
21507;SDS011;10915;54.352;9.074;2023-04-15T13:08:49;17.57;;;13.63;;
21507;SDS011;10915;54.352;9.074;2023-04-15T13:11:15;24.07;;;15.47;;
21507;SDS011;10915;54.352;9.074;2023-04-15T13:13:41;18.27;;;13.97;;
21507;SDS011;10915;54.352;9.074;2023-04-15T13:16:07;19.30;;;13.63;;
21507;SDS011;10915;54.352;9.074;2023-04-15T13:18:33;19.00;;;15.00;;
21507;SDS011;10915;54.352;9.074;2023-04-15T13:20:59;22.47;;;14.47;;
21507;SDS011;10915;54.352;9.074;2023-04-15T13:23:26;17.93;;;13.87;;
21507;SDS011;10915;54.352;9.074;2023-04-15T13:25:51;16.17;;;13.47;;
21507;SDS011;10915;54.352;9.074;2023-04-15T13:28:17;17.10;;;14.10;;
21507;SDS011;10915;54.352;9.074;2023-04-15T13:30:42;16.73;;;13.90;;
21507;SDS011;10915;54.352;9.074;2023-04-15T13:33:09;16.83;;;14.43;;
21507;SDS011;10915;54.352;9.074;2023-04-15T13:35:35;16.50;;;12.83;;
21507;SDS011;10915;54.352;9.074;2023-04-15T13:38:01;16.40;;;12.97;;
21507;SDS011;10915;54.352;9.074;2023-04-15T13:40:26;18.73;;;13.07;;
21507;SDS011;10915;54.352;9.074;2023-04-15T13:42:52;17.10;;;12.37;;
21507;SDS011;10915;54.352;9.074;2023-04-15T13:45:18;16.43;;;12.60;;
21507;SDS011;10915;54.352;9.074;2023-04-15T13:47:43;15.97;;;12.87;;
21507;SDS011;10915;54.352;9.074;2023-04-15T13:50:09;19.63;;;12.90;;
21507;SDS011;10915;54.352;9.074;2023-04-15T13:52:35;16.60;;;12.60;;
21507;SDS011;10915;54.352;9.074;2023-04-15T13:55:01;14.93;;;12.40;;
21507;SDS011;10915;54.352;9.074;2023-04-15T13:57:27;15.13;;;12.40;;
21507;SDS011;10915;54.352;9.074;2023-04-15T13:59:53;16.40;;;13.27;;
21507;SDS011;10915;54.352;9.074;2023-04-15T14:02:20;16.90;;;13.50;;
21507;SDS011;10915;54.352;9.074;2023-04-15T14:04:46;15.23;;;12.07;;
21507;SDS011;10915;54.352;9.074;2023-04-15T14:07:12;16.33;;;12.63;;
21507;SDS011;10915;54.352;9.074;2023-04-15T14:09:38;14.87;;;13.17;;
21507;SDS011;10915;54.352;9.074;2023-04-15T14:12:05;14.00;;;11.73;;
21507;SDS011;10915;54.352;9.074;2023-04-15T14:14:30;15.13;;;12.67;;
21507;SDS011;10915;54.352;9.074;2023-04-15T14:16:58;16.37;;;12.70;;
21507;SDS011;10915;54.352;9.074;2023-04-15T14:19:24;17.37;;;12.60;;
21507;SDS011;10915;54.352;9.074;2023-04-15T14:21:50;15.33;;;12.73;;
21507;SDS011;10915;54.352;9.074;2023-04-15T14:24:16;16.40;;;12.40;;
21507;SDS011;10915;54.352;9.074;2023-04-15T14:26:42;13.17;;;10.37;;
21507;SDS011;10915;54.352;9.074;2023-04-15T14:29:08;14.67;;;12.10;;
21507;SDS011;10915;54.352;9.074;2023-04-15T14:31:34;15.60;;;12.43;;
21507;SDS011;10915;54.352;9.074;2023-04-15T14:34:00;16.83;;;12.60;;
21507;SDS011;10915;54.352;9.074;2023-04-15T14:36:26;17.57;;;13.57;;
21507;SDS011;10915;54.352;9.074;2023-04-15T14:38:51;14.37;;;11.93;;